Time;durP1;ratioP1;P1;durP2;ratioP2;P2;SDS_P1;SDS_P2;PMS_P1;PMS_P2;Temp;Humidity;BMP_temperature;BMP_pressure;BME280_temperature;BME280_humidity;BME280_pressure;Samples;Min_cycle;Max_cycle;Signal;HPM_P1;HPM_P2
2021/12/29 00:01:21;;;;;;;79.32;48.90;;;25.90;99.90;;;;;;5065959;28;20496;-70
2021/12/29 00:03:48;;;;;;;65.80;39.50;;;25.90;99.90;;;;;;5073951;28;20381;-71
2021/12/29 00:06:15;;;;;;;69.03;39.90;;;25.80;99.90;;;;;;5074858;28;20029;-71
2021/12/29 00:08:41;;;;;;;65.90;43.67;;;25.80;99.90;;;;;;5074835;28;20396;-71
2021/12/29 00:11:08;;;;;;;62.60;40.15;;;25.80;99.90;;;;;;5057160;28;20110;-70
2021/12/29 00:13:35;;;;;;;64.93;38.20;;;25.80;99.90;;;;;;5060493;28;20027;-69
2021/12/29 00:16:02;;;;;;;70.05;37.95;;;25.90;99.90;;;;;;5054623;28;20659;-70
2021/12/29 00:18:32;;;;;;;56.47;34.00;;;26.00;99.90;;;;;;5054966;28;20041;-71
2021/12/29 00:21:01;;;;;;;56.97;35.55;;;25.90;99.90;;;;;;5055081;28;20112;-70
2021/12/29 00:23:27;;;;;;;68.25;36.47;;;25.90;99.90;;;;;;5070707;28;20082;-70
2021/12/29 00:25:54;;;;;;;52.05;34.33;;;25.90;99.90;;;;;;5056643;28;20382;-70
2021/12/29 00:28:21;;;;;;;58.70;37.42;;;25.90;99.90;;;;;;5054687;28;20035;-69
2021/12/29 00:30:48;;;;;;;65.65;43.25;;;26.00;99.90;;;;;;5054309;28;20047;-69
2021/12/29 00:33:15;;;;;;;66.80;44.90;;;26.00;99.90;;;;;;5055565;28;20084;-70
2021/12/29 00:35:42;;;;;;;72.57;46.40;;;26.00;99.90;;;;;;5054284;28;20021;-69
2021/12/29 00:38:10;;;;;;;55.90;40.42;;;26.00;99.90;;;;;;5055370;28;20028;-70
2021/12/29 00:40:38;;;;;;;70.78;45.25;;;26.10;99.90;;;;;;5062640;28;20029;-70
2021/12/29 00:43:06;;;;;;;59.72;39.85;;;26.10;99.90;;;;;;5065733;28;20033;-70
2021/12/29 00:45:36;;;;;;;53.58;38.45;;;26.10;99.90;;;;;;5054430;28;20033;-70
2021/12/29 00:48:05;;;;;;;62.35;38.35;;;26.10;99.90;;;;;;5054374;28;20036;-70
2021/12/29 00:50:33;;;;;;;65.78;37.10;;;26.20;99.90;;;;;;5053791;28;20127;-70
2021/12/29 00:53:00;;;;;;;54.35;33.45;;;26.30;99.90;;;;;;5055276;28;20025;-70
2021/12/29 00:55:27;;;;;;;52.35;35.28;;;26.30;99.90;;;;;;5053952;28;20025;-70
2021/12/29 00:57:54;;;;;;;47.75;32.40;;;26.40;99.90;;;;;;5067657;28;20080;-70
2021/12/29 01:00:23;;;;;;;45.08;30.52;;;26.50;99.90;;;;;;5054867;28;20521;-71
2021/12/29 01:02:51;;;;;;;50.10;30.98;;;26.50;99.90;;;;;;5059983;28;20029;-71
2021/12/29 01:05:19;;;;;;;48.03;31.40;;;26.60;99.90;;;;;;5059696;28;20029;-72
2021/12/29 01:07:49;;;;;;;56.28;32.45;;;26.60;99.90;;;;;;5054952;28;20074;-71
2021/12/29 01:10:17;;;;;;;47.25;32.25;;;26.70;99.90;;;;;;5064115;28;20044;-70
2021/12/29 01:12:52;;;;;;;52.15;31.83;;;26.80;99.90;;;;;;5053484;28;20075;-70
2021/12/29 01:15:25;;;;;;;46.00;31.15;;;26.80;99.90;;;;;;5065947;28;20062;-71
2021/12/29 01:17:54;;;;;;;59.90;32.63;;;26.90;99.90;;;;;;5066870;28;20031;-71
2021/12/29 01:20:21;;;;;;;50.72;30.75;;;26.80;99.90;;;;;;5061136;28;20540;-71
2021/12/29 01:22:50;;;;;;;50.72;33.95;;;26.90;99.90;;;;;;5061492;28;20032;-71
2021/12/29 01:25:17;;;;;;;56.17;32.22;;;26.90;99.90;;;;;;5053716;28;20027;-68
2021/12/29 01:27:44;;;;;;;58.55;35.15;;;27.00;99.90;;;;;;5053982;28;20033;-72
2021/12/29 01:30:12;;;;;;;68.88;35.35;;;27.00;99.90;;;;;;5054389;28;20389;-70
2021/12/29 01:32:40;;;;;;;59.38;37.70;;;26.90;99.90;;;;;;5058474;28;20044;-72
2021/12/29 01:35:09;;;;;;;54.55;35.47;;;27.00;99.90;;;;;;5065042;28;20036;-71
2021/12/29 01:37:36;;;;;;;63.58;38.40;;;27.00;99.90;;;;;;5060656;28;20027;-71
2021/12/29 01:40:06;;;;;;;59.97;37.53;;;27.00;99.90;;;;;;5060819;28;20070;-74
2021/12/29 01:42:33;;;;;;;74.07;41.30;;;27.00;99.90;;;;;;5062018;28;20440;-70
2021/12/29 01:45:00;;;;;;;66.03;43.53;;;27.00;99.90;;;;;;5060840;28;20037;-69
2021/12/29 01:47:30;;;;;;;74.45;45.35;;;27.10;99.90;;;;;;5061088;28;20548;-71
2021/12/29 01:50:00;;;;;;;68.93;45.25;;;27.10;99.90;;;;;;5060530;28;20057;-70
2021/12/29 01:52:33;;;;;;;89.35;51.28;;;27.10;99.90;;;;;;5062620;28;20068;-70
2021/12/29 01:54:59;;;;;;;70.90;44.30;;;27.20;99.90;;;;;;5062861;28;20035;-72
2021/12/29 01:57:26;;;;;;;64.82;42.30;;;27.20;99.90;;;;;;5061260;28;20466;-70
2021/12/29 01:59:53;;;;;;;68.82;42.10;;;27.30;99.90;;;;;;5063127;28;20389;-69
2021/12/29 02:02:19;;;;;;;62.28;39.03;;;27.40;99.90;;;;;;5060004;28;20021;-70
2021/12/29 02:04:47;;;;;;;64.90;42.60;;;27.40;99.90;;;;;;5063983;28;20017;-70
2021/12/29 02:07:14;;;;;;;60.78;40.53;;;27.40;99.90;;;;;;5067089;28;20108;-72
2021/12/29 02:09:41;;;;;;;56.53;37.60;;;27.50;99.90;;;;;;5072881;28;20025;-71
2021/12/29 02:12:08;;;;;;;55.47;33.92;;;27.50;99.90;;;;;;5065046;28;20052;-71
2021/12/29 02:14:35;;;;;;;56.33;37.88;;;27.50;99.90;;;;;;5065883;28;20381;-71
2021/12/29 02:17:03;;;;;;;53.75;37.47;;;27.60;99.90;;;;;;5061260;28;20029;-72
2021/12/29 02:19:30;;;;;;;49.92;32.42;;;27.60;99.90;;;;;;5065461;28;20021;-72
2021/12/29 02:22:06;;;;;;;49.78;32.03;;;27.70;99.90;;;;;;5061274;28;20082;-72
2021/12/29 02:24:38;;;;;;;54.63;32.35;;;27.80;99.90;;;;;;5056804;28;20389;-70
2021/12/29 02:27:06;;;;;;;48.53;33.33;;;27.80;99.90;;;;;;5058039;28;20486;-68
2021/12/29 02:29:34;;;;;;;52.20;33.50;;;27.80;99.90;;;;;;5059029;28;20041;-69
2021/12/29 02:32:01;;;;;;;59.80;34.08;;;27.80;99.90;;;;;;5075376;28;20045;-70
2021/12/29 02:34:28;;;;;;;56.75;34.33;;;27.80;99.90;;;;;;5076648;28;20016;-70
2021/12/29 02:36:58;;;;;;;49.22;31.08;;;27.90;99.90;;;;;;5076506;28;20019;-70
2021/12/29 02:39:25;;;;;;;45.15;28.13;;;28.00;99.90;;;;;;5076606;28;20362;-70
2021/12/29 02:41:54;;;;;;;43.03;27.80;;;28.00;99.90;;;;;;5074893;28;20025;-69
2021/12/29 02:44:27;;;;;;;35.92;21.98;;;28.00;99.90;;;;;;5070087;28;20025;-70
2021/12/29 02:46:56;;;;;;;43.90;25.42;;;28.10;99.90;;;;;;5074646;28;20435;-70
2021/12/29 02:49:24;;;;;;;41.03;25.33;;;28.10;99.90;;;;;;5076200;28;20040;-69
2021/12/29 02:51:51;;;;;;;39.40;24.98;;;28.10;99.90;;;;;;5068458;28;20045;-70
2021/12/29 02:54:18;;;;;;;39.15;20.85;;;28.20;99.90;;;;;;5058755;28;20041;-70
2021/12/29 02:56:48;;;;;;;35.97;20.70;;;28.20;99.90;;;;;;5062743;28;20077;-70
2021/12/29 02:59:16;;;;;;;31.88;21.33;;;28.20;99.90;;;;;;5075845;28;20028;-71
2021/12/29 03:01:43;;;;;;;27.60;18.77;;;28.30;99.90;;;;;;5070663;28;20123;-71
2021/12/29 03:04:11;;;;;;;44.65;24.08;;;28.30;99.90;;;;;;5065419;28;20033;-72
2021/12/29 03:06:38;;;;;;;32.30;20.88;;;28.40;99.90;;;;;;5067796;28;20480;-72
2021/12/29 03:09:07;;;;;;;42.05;19.55;;;28.40;99.90;;;;;;5061139;28;20388;-71
2021/12/29 03:11:34;;;;;;;28.25;19.85;;;28.40;99.90;;;;;;5056676;28;20033;-71
2021/12/29 03:14:01;;;;;;;35.40;21.52;;;28.60;99.90;;;;;;5063888;28;20405;-71
2021/12/29 03:16:28;;;;;;;36.95;21.50;;;28.50;99.90;;;;;;5060243;28;20032;-69
2021/12/29 03:18:55;;;;;;;34.90;20.52;;;28.60;99.90;;;;;;5064013;28;20027;-71
2021/12/29 03:21:21;;;;;;;38.95;20.30;;;28.70;99.90;;;;;;5061457;28;20032;-76
2021/12/29 03:23:49;;;;;;;37.38;22.42;;;28.80;99.90;;;;;;5062590;28;20454;-69
2021/12/29 03:26:17;;;;;;;40.38;21.98;;;28.90;99.90;;;;;;5060392;28;20485;-74
2021/12/29 03:28:44;;;;;;;42.25;21.40;;;29.00;99.90;;;;;;5062811;28;20413;-78
2021/12/29 03:31:14;;;;;;;27.55;19.27;;;28.90;99.90;;;;;;5060960;28;20029;-72
2021/12/29 03:33:42;;;;;;;25.70;17.75;;;28.90;99.90;;;;;;5062274;28;20116;-71
2021/12/29 03:36:13;;;;;;;26.30;18.25;;;28.90;99.90;;;;;;5066044;28;20025;-70
2021/12/29 03:38:42;;;;;;;28.42;19.38;;;29.00;99.90;;;;;;5067448;28;20025;-70
2021/12/29 03:41:12;;;;;;;30.13;20.20;;;29.10;99.90;;;;;;5067398;28;20031;-72
2021/12/29 03:43:40;;;;;;;27.95;20.42;;;29.10;99.90;;;;;;5067236;28;20077;-70
2021/12/29 03:46:09;;;;;;;28.08;18.88;;;29.30;99.90;;;;;;5063521;28;20452;-71
2021/12/29 03:48:38;;;;;;;35.25;19.42;;;29.50;99.90;;;;;;5058868;28;20040;-69
2021/12/29 03:51:05;;;;;;;25.75;18.20;;;29.50;99.90;;;;;;5059330;28;20062;-69
2021/12/29 03:53:32;;;;;;;49.72;19.23;;;29.60;99.90;;;;;;5058376;28;20032;-71
2021/12/29 03:55:59;;;;;;;29.58;19.40;;;29.60;99.90;;;;;;5057211;28;20484;-69
2021/12/29 03:58:28;;;;;;;30.23;17.90;;;29.60;99.90;;;;;;5055521;28;20466;-69
2021/12/29 04:01:00;;;;;;;26.27;17.70;;;29.60;99.90;;;;;;5065461;28;20029;-69
2021/12/29 04:03:27;;;;;;;29.58;18.35;;;29.80;99.90;;;;;;5062216;28;20024;-69
2021/12/29 04:05:54;;;;;;;26.52;17.70;;;29.80;99.90;;;;;;5060160;28;20698;-70
2021/12/29 04:08:21;;;;;;;28.80;16.20;;;29.80;99.90;;;;;;5061977;28;20064;-71
2021/12/29 04:10:48;;;;;;;39.30;17.60;;;29.90;99.90;;;;;;5059188;28;20503;-74
2021/12/29 04:13:15;;;;;;;25.23;16.40;;;29.90;99.90;;;;;;5060499;28;20026;-74
2021/12/29 04:15:42;;;;;;;22.08;14.88;;;30.00;99.90;;;;;;5062011;28;20028;-71
2021/12/29 04:18:25;;;;;;;23.42;16.42;;;30.20;99.90;;;;;;5060219;28;20028;-74
2021/12/29 04:20:57;;;;;;;30.02;18.52;;;30.40;99.90;;;;;;5061568;28;20071;-73
2021/12/29 04:23:25;;;;;;;;;;;30.50;99.90;;;;;;5060276;28;20033;-74
2021/12/29 04:25:54;;;;;;;26.08;17.92;;;30.30;99.90;;;;;;5061130;28;19912;-71
2021/12/29 04:28:23;;;;;;;25.42;17.63;;;30.30;99.90;;;;;;5062003;28;20033;-72
2021/12/29 04:31:06;;;;;;;29.65;18.63;;;30.20;99.90;;;;;;5062826;28;20025;-72
2021/12/29 04:33:35;;;;;;;28.58;18.15;;;30.00;99.90;;;;;;5062963;28;20075;-72
2021/12/29 04:36:02;;;;;;;22.63;16.15;;;29.90;99.90;;;;;;5059144;28;20500;-72
2021/12/29 04:38:29;;;;;;;28.85;17.42;;;29.90;99.90;;;;;;5062302;28;20029;-72
2021/12/29 04:40:56;;;;;;;24.40;16.10;;;29.90;99.90;;;;;;5072034;28;20063;-74
2021/12/29 04:43:27;;;;;;;24.58;16.55;;;29.90;99.90;;;;;;5062000;28;20025;-71
2021/12/29 04:45:55;;;;;;;24.90;16.70;;;29.90;99.90;;;;;;5068011;28;20021;-72
2021/12/29 04:48:23;;;;;;;35.00;22.65;;;30.00;99.90;;;;;;5057811;28;20196;-69
2021/12/29 04:50:53;;;;;;;193.77;137.00;;;30.00;99.90;;;;;;5059435;28;20037;-70
2021/12/29 04:53:23;;;;;;;37.47;28.80;;;29.90;99.90;;;;;;5063951;28;20031;-71
2021/12/29 04:55:50;;;;;;;31.48;20.95;;;29.70;99.90;;;;;;5066788;28;20361;-73
2021/12/29 04:58:20;;;;;;;31.65;21.77;;;29.70;99.90;;;;;;5067720;28;20251;-75
2021/12/29 05:00:49;;;;;;;32.08;22.35;;;29.60;99.90;;;;;;5058868;28;20137;-73
2021/12/29 05:03:16;;;;;;;30.10;19.42;;;29.70;99.90;;;;;;5062331;28;20024;-70
2021/12/29 05:08:26;;;;;;;72.18;46.83;;;30.00;99.90;;;;;;5061610;28;20035;-72
2021/12/29 05:10:59;;;;;;;32.47;21.23;;;30.20;99.90;;;;;;5063021;28;20028;-71
2021/12/29 05:13:28;;;;;;;26.52;16.00;;;30.40;99.90;;;;;;5061684;28;20542;-72
2021/12/29 05:15:56;;;;;;;114.30;79.90;;;30.70;99.90;;;;;;5061712;28;20166;-70
2021/12/29 05:18:25;;;;;;;107.03;67.90;;;30.80;99.90;;;;;;5058138;28;20164;-69
2021/12/29 05:20:53;;;;;;;163.93;124.63;;;30.80;99.90;;;;;;5053372;28;20016;-71
2021/12/29 05:23:20;;;;;;;24.50;15.30;;;30.90;99.90;;;;;;5056493;28;20428;-73
2021/12/29 05:28:14;;;;;;;28.73;14.32;;;30.90;99.90;;;;;;5061872;28;20035;-73
2021/12/29 05:30:40;;;;;;;21.42;15.32;;;30.60;99.90;;;;;;5060708;28;20029;-71
2021/12/29 05:33:07;;;;;;;26.27;14.80;;;30.30;99.90;;;;;;5061089;28;20029;-73
2021/12/29 05:35:34;;;;;;;22.35;14.88;;;30.30;99.90;;;;;;5061116;28;20024;-74
2021/12/29 05:38:01;;;;;;;36.67;23.35;;;30.50;99.90;;;;;;5060543;28;20094;-74
2021/12/29 05:40:29;;;;;;;27.63;16.95;;;30.70;99.90;;;;;;5060025;28;20067;-74
2021/12/29 05:42:57;;;;;;;23.83;15.35;;;30.80;99.80;;;;;;5054116;28;20312;-75
2021/12/29 05:45:24;;;;;;;50.53;35.60;;;30.70;98.80;;;;;;5053980;28;20043;-73
2021/12/29 05:47:51;;;;;;;106.28;73.85;;;30.60;99.00;;;;;;5053679;28;20061;-73
2021/12/29 05:50:22;;;;;;;72.50;49.33;;;30.50;99.70;;;;;;5053427;28;20470;-76
2021/12/29 05:52:49;;;;;;;24.65;13.13;;;30.40;99.70;;;;;;5054151;28;20021;-74
2021/12/29 05:55:16;;;;;;;15.52;12.02;;;30.30;99.90;;;;;;5051811;28;20312;-74
2021/12/29 05:57:44;;;;;;;18.88;12.63;;;30.40;98.90;;;;;;5056006;28;20029;-77
2021/12/29 06:00:14;;;;;;;21.88;13.35;;;30.40;98.20;;;;;;5057021;28;20021;-73
2021/12/29 06:02:41;;;;;;;56.85;35.90;;;30.50;98.20;;;;;;5060873;28;20476;-70
2021/12/29 06:05:08;;;;;;;107.13;77.13;;;30.50;97.40;;;;;;5058528;28;20024;-68
2021/12/29 06:07:37;;;;;;;61.70;45.67;;;30.60;95.90;;;;;;5055687;28;20056;-69
2021/12/29 06:10:06;;;;;;;37.67;26.08;;;30.60;96.20;;;;;;5054584;28;20112;-73
2021/12/29 06:12:33;;;;;;;93.40;63.08;;;30.70;95.60;;;;;;5050926;28;20045;-70
2021/12/29 06:14:59;;;;;;;72.45;55.20;;;30.80;96.30;;;;;;5055226;28;20047;-69
2021/12/29 06:17:26;;;;;;;92.90;60.47;;;30.90;95.00;;;;;;5054409;28;20457;-70
2021/12/29 06:19:53;;;;;;;77.20;50.03;;;30.90;94.90;;;;;;5052695;28;20371;-69
2021/12/29 06:22:20;;;;;;;45.40;32.08;;;30.90;93.60;;;;;;5050912;28;20086;-71
2021/12/29 06:24:51;;;;;;;73.05;48.17;;;30.90;92.20;;;;;;5050375;28;20647;-68
2021/12/29 06:27:21;;;;;;;53.03;32.20;;;31.00;92.80;;;;;;5056810;28;20029;-69
2021/12/29 06:29:48;;;;;;;25.58;16.33;;;31.00;92.50;;;;;;5061757;28;20079;-69
2021/12/29 06:32:15;;;;;;;60.50;37.05;;;31.00;92.30;;;;;;5062219;28;20024;-69
2021/12/29 06:34:41;;;;;;;51.72;35.75;;;31.10;92.50;;;;;;5062748;28;20021;-69
2021/12/29 06:37:12;;;;;;;83.32;52.42;;;31.00;92.90;;;;;;5061549;28;20485;-71
2021/12/29 06:39:44;;;;;;;87.28;54.55;;;31.00;93.20;;;;;;5061695;28;20485;-70
2021/12/29 06:42:11;;;;;;;80.13;52.45;;;30.90;93.30;;;;;;5061691;28;20469;-70
2021/12/29 06:44:39;;;;;;;139.85;92.63;;;30.90;93.70;;;;;;5061867;28;20033;-70
2021/12/29 06:47:06;;;;;;;70.60;47.55;;;30.80;94.00;;;;;;5059931;28;20078;-68
2021/12/29 06:49:34;;;;;;;51.90;26.67;;;30.80;93.70;;;;;;5062030;28;20067;-70
2021/12/29 06:52:02;;;;;;;81.20;55.13;;;30.80;92.90;;;;;;5062187;28;20032;-70
2021/12/29 06:54:29;;;;;;;107.65;74.35;;;30.80;92.80;;;;;;5062722;28;20020;-69
2021/12/29 06:56:56;;;;;;;185.55;124.00;;;30.90;93.70;;;;;;5061867;28;20048;-68
2021/12/29 06:59:23;;;;;;;49.13;35.72;;;30.90;93.70;;;;;;5062736;28;20152;-70
2021/12/29 07:01:50;;;;;;;26.83;19.17;;;31.00;92.60;;;;;;5063472;28;20025;-68
2021/12/29 07:04:17;;;;;;;24.27;15.18;;;30.90;93.70;;;;;;5062825;28;20486;-70
2021/12/29 07:06:44;;;;;;;19.27;13.75;;;30.80;93.40;;;;;;5062307;28;20025;-70
2021/12/29 07:09:11;;;;;;;24.17;17.20;;;30.80;93.10;;;;;;5063413;28;20017;-73
2021/12/29 07:11:38;;;;;;;63.05;45.38;;;30.90;93.60;;;;;;5068626;28;20090;-70
2021/12/29 07:14:07;;;;;;;44.85;31.02;;;30.90;94.20;;;;;;5066646;28;20066;-76
2021/12/29 07:16:34;;;;;;;21.67;15.90;;;30.90;93.00;;;;;;5064422;28;20021;-70
2021/12/29 07:19:01;;;;;;;22.90;16.02;;;31.00;93.30;;;;;;5062187;28;20052;-70
2021/12/29 07:21:27;;;;;;;19.77;13.93;;;30.80;96.40;;;;;;5062375;28;20028;-71
2021/12/29 07:23:54;;;;;;;28.58;16.27;;;30.70;97.70;;;;;;5061287;28;20048;-70
2021/12/29 07:26:22;;;;;;;32.38;16.85;;;30.70;99.10;;;;;;5061475;28;20063;-72
2021/12/29 07:28:50;;;;;;;35.28;17.73;;;30.60;99.90;;;;;;5062304;28;20032;-70
2021/12/29 07:31:18;;;;;;;22.70;16.98;;;30.50;99.90;;;;;;5063755;28;20097;-70
2021/12/29 07:33:45;;;;;;;33.33;18.27;;;30.50;99.90;;;;;;5060026;28;20025;-70
2021/12/29 07:36:12;;;;;;;28.40;16.88;;;30.50;99.90;;;;;;5063702;28;20078;-71
2021/12/29 07:38:40;;;;;;;24.95;16.58;;;30.50;98.40;;;;;;5063346;28;20478;-70
2021/12/29 07:41:08;;;;;;;22.27;15.43;;;30.50;98.80;;;;;;5063781;28;20044;-71
2021/12/29 07:43:36;;;;;;;22.90;16.92;;;30.50;98.90;;;;;;5062296;28;20029;-72
2021/12/29 07:46:04;;;;;;;32.88;19.38;;;30.40;98.70;;;;;;5059501;28;20027;-72
2021/12/29 07:48:32;;;;;;;27.05;18.48;;;30.30;98.50;;;;;;5071568;28;20068;-70
2021/12/29 07:51:02;;;;;;;32.88;20.90;;;30.40;98.10;;;;;;5060597;28;20037;-70
2021/12/29 07:53:29;;;;;;;27.38;20.02;;;30.30;97.70;;;;;;5065734;28;20021;-71
2021/12/29 07:55:55;;;;;;;29.73;20.30;;;30.30;98.20;;;;;;5059699;28;20024;-72
2021/12/29 07:58:23;;;;;;;30.05;20.88;;;30.20;97.80;;;;;;5066649;28;20095;-71
2021/12/29 08:00:50;;;;;;;35.25;18.95;;;30.20;98.90;;;;;;5061833;28;20036;-73
2021/12/29 08:03:17;;;;;;;29.23;19.33;;;30.20;98.20;;;;;;5059462;28;20056;-70
2021/12/29 08:05:44;;;;;;;32.40;23.23;;;30.20;99.30;;;;;;5063329;28;20036;-70
2021/12/29 08:08:12;;;;;;;30.13;20.23;;;30.30;99.90;;;;;;5063587;28;20048;-71
2021/12/29 08:10:39;;;;;;;29.60;19.75;;;30.40;99.40;;;;;;5064242;28;20378;-69
2021/12/29 08:13:07;;;;;;;39.33;23.90;;;30.40;98.20;;;;;;5063584;28;20023;-70
2021/12/29 08:15:35;;;;;;;33.55;24.15;;;30.40;98.00;;;;;;5065289;28;20024;-69
2021/12/29 08:18:04;;;;;;;34.05;21.38;;;30.40;98.70;;;;;;5061190;28;20028;-69
2021/12/29 08:20:32;;;;;;;36.35;20.30;;;30.50;97.10;;;;;;5056661;28;20032;-71
2021/12/29 08:23:00;;;;;;;41.03;26.63;;;30.50;96.60;;;;;;5060091;28;20033;-72
2021/12/29 08:25:27;;;;;;;40.55;28.67;;;30.50;96.90;;;;;;5058986;28;20044;-70
2021/12/29 08:27:53;;;;;;;76.05;42.13;;;30.40;97.50;;;;;;5058787;28;20427;-71
2021/12/29 08:30:20;;;;;;;57.20;42.95;;;30.50;96.90;;;;;;5058194;28;20499;-73
2021/12/29 08:32:47;;;;;;;37.47;25.85;;;30.50;96.90;;;;;;5059249;28;20056;-75
2021/12/29 08:35:14;;;;;;;32.13;21.33;;;30.50;96.80;;;;;;5058862;28;20474;-77
2021/12/29 08:37:41;;;;;;;44.70;27.17;;;30.50;96.40;;;;;;5059667;28;20025;-74
2021/12/29 08:40:10;;;;;;;67.35;48.10;;;30.50;96.40;;;;;;5058328;28;20031;-73
2021/12/29 08:42:38;;;;;;;65.20;40.15;;;30.50;96.00;;;;;;5057434;28;20477;-74
2021/12/29 08:45:08;;;;;;;43.42;26.58;;;30.40;96.20;;;;;;5054401;28;20119;-73
2021/12/29 08:47:35;;;;;;;43.03;27.90;;;30.50;96.80;;;;;;5055314;28;20128;-74
2021/12/29 08:50:05;;;;;;;54.75;39.33;;;30.50;97.00;;;;;;5054388;28;20061;-74
2021/12/29 08:52:33;;;;;;;58.65;41.72;;;30.60;97.30;;;;;;5060294;28;20044;-72
2021/12/29 08:55:00;;;;;;;53.47;31.75;;;30.70;97.90;;;;;;5066773;28;20033;-73
2021/12/29 08:57:28;;;;;;;33.38;22.25;;;30.70;96.90;;;;;;5062821;28;20031;-75
2021/12/29 08:59:55;;;;;;;35.03;24.40;;;30.70;96.00;;;;;;5070144;28;20131;-76
2021/12/29 09:02:21;;;;;;;350.27;231.43;;;30.70;97.20;;;;;;5068786;28;20082;-74
2021/12/29 09:04:48;;;;;;;44.17;29.83;;;30.70;96.50;;;;;;5058843;28;20120;-76
2021/12/29 09:07:15;;;;;;;40.45;24.95;;;30.70;96.60;;;;;;5059243;28;20024;-75
2021/12/29 09:09:41;;;;;;;320.60;218.88;;;30.70;96.30;;;;;;5057481;28;20063;-73
2021/12/29 09:12:09;;;;;;;74.20;43.55;;;30.80;97.70;;;;;;5061158;28;20040;-72
2021/12/29 09:14:35;;;;;;;54.10;34.85;;;30.80;97.50;;;;;;5061696;28;20104;-73
2021/12/29 09:17:03;;;;;;;38.25;26.73;;;30.80;97.40;;;;;;5064665;28;20025;-73
2021/12/29 09:19:33;;;;;;;34.50;23.67;;;30.70;95.80;;;;;;5061697;28;20409;-72
2021/12/29 09:22:00;;;;;;;36.30;23.85;;;30.70;96.70;;;;;;5060835;28;20115;-72
2021/12/29 09:24:26;;;;;;;36.35;24.60;;;30.70;96.90;;;;;;5063605;28;20037;-74
2021/12/29 09:26:54;;;;;;;37.05;23.30;;;30.80;96.40;;;;;;5058920;28;20033;-72
2021/12/29 09:29:21;;;;;;;34.80;19.67;;;30.70;95.90;;;;;;5062205;28;20024;-72
2021/12/29 09:31:48;;;;;;;28.75;19.02;;;30.70;96.30;;;;;;5058835;28;20481;-73
2021/12/29 09:34:14;;;;;;;33.47;22.38;;;30.70;96.40;;;;;;5060777;28;20024;-74
2021/12/29 09:36:41;;;;;;;37.35;24.25;;;30.70;96.90;;;;;;5062563;28;20020;-71
2021/12/29 09:39:08;;;;;;;36.75;26.55;;;30.70;96.60;;;;;;5061365;28;20067;-72
2021/12/29 09:41:35;;;;;;;29.17;19.70;;;30.70;96.70;;;;;;5062647;28;20422;-72
2021/12/29 09:44:02;;;;;;;31.50;22.25;;;30.70;96.00;;;;;;5063877;28;20401;-72
2021/12/29 09:46:29;;;;;;;19.90;15.68;;;30.80;96.40;;;;;;5064289;28;20024;-74
2021/12/29 09:48:59;;;;;;;20.98;15.35;;;30.70;95.80;;;;;;5066207;28;20213;-73
2021/12/29 09:51:25;;;;;;;24.27;14.90;;;30.70;95.70;;;;;;5081288;22;20077;-73
2021/12/29 09:53:52;;;;;;;25.00;15.18;;;30.70;95.90;;;;;;5025036;28;20119;-74
2021/12/29 09:56:19;;;;;;;25.83;15.52;;;30.70;96.20;;;;;;5025319;28;20025;-77
2021/12/29 09:58:45;;;;;;;25.00;18.05;;;30.60;95.20;;;;;;5025669;28;20049;-73
2021/12/29 10:01:12;;;;;;;22.08;14.52;;;30.60;94.70;;;;;;5023706;28;20188;-72
2021/12/29 10:03:42;;;;;;;19.38;14.48;;;30.60;94.70;;;;;;5021951;28;20018;-72
2021/12/29 10:06:10;;;;;;;20.33;14.20;;;30.60;94.70;;;;;;5025145;28;20021;-78
2021/12/29 10:08:43;;;;;;;26.92;17.33;;;30.70;93.90;;;;;;5026213;28;20068;-76
2021/12/29 10:11:14;;;;;;;40.15;22.05;;;30.60;93.80;;;;;;5024581;28;20124;-74
2021/12/29 10:13:43;;;;;;;28.20;19.65;;;30.50;95.10;;;;;;5027318;28;20018;-74
2021/12/29 10:16:20;;;;;;;27.38;18.17;;;30.50;95.30;;;;;;5013740;28;20030;-73
2021/12/29 10:18:53;;;;;;;30.90;18.75;;;30.50;95.60;;;;;;5031362;28;20084;-74
2021/12/29 10:21:25;;;;;;;36.45;25.83;;;30.40;95.30;;;;;;5032522;28;20042;-73
2021/12/29 10:23:54;;;;;;;38.38;24.02;;;30.40;95.50;;;;;;5030493;28;20036;-75
2021/12/29 10:26:28;;;;;;;110.78;90.68;;;30.30;95.50;;;;;;5013242;28;20380;-73
2021/12/29 10:29:00;;;;;;;63.15;42.05;;;30.30;95.70;;;;;;5028825;28;20397;-73
2021/12/29 10:31:30;;;;;;;69.40;46.50;;;30.40;96.30;;;;;;5021808;28;20489;-72
2021/12/29 10:34:00;;;;;;;40.92;22.83;;;30.30;95.90;;;;;;5030683;28;20156;-71
2021/12/29 10:36:38;;;;;;;28.80;18.42;;;30.30;96.10;;;;;;5019673;28;20394;-73
2021/12/29 10:39:28;;;;;;;38.53;25.40;;;30.20;96.60;;;;;;5036928;28;20021;-70
2021/12/29 10:42:03;;;;;;;32.83;23.27;;;30.30;97.20;;;;;;5034984;28;20025;-72
2021/12/29 10:44:40;;;;;;;42.70;24.70;;;30.20;97.30;;;;;;5031162;28;20489;-70
2021/12/29 10:47:31;;;;;;;35.80;23.70;;;30.20;97.00;;;;;;5029526;28;20033;-71
2021/12/29 10:50:10;;;;;;;123.10;90.72;;;30.20;97.40;;;;;;5033668;28;20560;-70
2021/12/29 10:52:46;;;;;;;41.70;24.02;;;30.10;98.40;;;;;;5036329;28;20386;-72
2021/12/29 10:55:18;;;;;;;33.45;18.10;;;30.10;98.20;;;;;;5030361;28;20026;-70
2021/12/29 10:57:47;;;;;;;117.07;83.30;;;30.10;98.60;;;;;;5028162;28;20382;-71
2021/12/29 11:00:18;;;;;;;56.88;35.00;;;30.00;99.00;;;;;;5029160;28;20022;-70
2021/12/29 11:02:46;;;;;;;42.10;24.58;;;30.00;99.30;;;;;;5028813;28;20026;-70
2021/12/29 11:05:13;;;;;;;36.20;22.50;;;29.90;99.10;;;;;;5028862;28;20477;-70
2021/12/29 11:07:41;;;;;;;35.88;24.35;;;30.00;98.50;;;;;;5027197;28;20021;-69
2021/12/29 11:10:17;;;;;;;40.35;25.77;;;30.00;99.70;;;;;;5030790;28;20440;-70
2021/12/29 11:12:56;;;;;;;42.28;26.58;;;30.00;98.40;;;;;;5035679;28;20026;-70
2021/12/29 11:15:28;;;;;;;37.95;25.63;;;29.90;98.40;;;;;;5025242;28;20386;-71
2021/12/29 11:17:57;;;;;;;51.33;31.65;;;29.90;99.10;;;;;;5026696;28;20036;-68
2021/12/29 11:20:26;;;;;;;64.72;38.80;;;30.00;99.20;;;;;;5027562;28;20026;-70
2021/12/29 11:23:06;;;;;;;358.55;290.88;;;29.90;99.10;;;;;;5029182;28;20079;-71
2021/12/29 11:25:34;;;;;;;63.90;42.85;;;29.90;99.90;;;;;;5027015;28;20038;-70
2021/12/29 11:28:01;;;;;;;118.75;81.88;;;29.80;99.90;;;;;;5024595;28;20478;-71
2021/12/29 11:30:28;;;;;;;78.65;50.88;;;29.90;99.90;;;;;;5026554;28;20025;-71
2021/12/29 11:33:06;;;;;;;54.55;36.20;;;29.80;99.90;;;;;;5026361;28;20045;-70
2021/12/29 11:35:39;;;;;;;69.03;45.42;;;29.80;99.90;;;;;;5027934;28;20471;-70
2021/12/29 11:38:05;;;;;;;173.07;120.15;;;29.80;99.90;;;;;;5032589;28;20034;-72
2021/12/29 11:40:36;;;;;;;94.78;58.40;;;29.80;99.90;;;;;;5031301;28;20021;-72
2021/12/29 11:43:02;;;;;;;87.97;51.08;;;29.80;99.90;;;;;;5034478;28;20028;-72
2021/12/29 11:45:29;;;;;;;75.10;46.58;;;29.80;99.90;;;;;;5026485;28;20025;-71
2021/12/29 11:47:56;;;;;;;66.03;39.60;;;29.70;99.90;;;;;;5028280;28;20052;-71
2021/12/29 11:50:30;;;;;;;54.65;34.72;;;29.60;99.90;;;;;;5028619;28;20018;-72
2021/12/29 11:52:59;;;;;;;69.35;39.63;;;29.60;99.90;;;;;;5026269;28;20041;-68
2021/12/29 11:55:31;;;;;;;82.47;46.28;;;29.70;99.90;;;;;;5027436;28;20101;-71
2021/12/29 11:58:15;;;;;;;79.68;46.15;;;29.60;99.90;;;;;;5043069;28;20045;-72
2021/12/29 12:00:45;;;;;;;69.40;41.40;;;29.60;99.90;;;;;;5030002;28;20033;-70
2021/12/29 12:03:15;;;;;;;71.07;42.08;;;29.60;99.90;;;;;;5029558;28;20029;-72
2021/12/29 12:05:49;;;;;;;76.60;43.88;;;29.60;99.90;;;;;;5030519;28;20101;-77
2021/12/29 12:08:24;;;;;;;107.32;57.85;;;29.50;99.90;;;;;;5042297;28;20026;-71
2021/12/29 12:10:53;;;;;;;87.25;48.58;;;29.50;99.90;;;;;;5032115;28;20091;-70
2021/12/29 12:13:30;;;;;;;100.93;53.20;;;29.40;99.90;;;;;;5033180;28;20025;-69
2021/12/29 12:16:11;;;;;;;88.05;49.20;;;29.40;99.90;;;;;;5019181;28;20022;-71
2021/12/29 12:18:51;;;;;;;85.50;46.75;;;29.40;99.90;;;;;;5018768;28;20478;-72
2021/12/29 12:21:28;;;;;;;81.80;47.25;;;29.40;99.90;;;;;;5034269;28;20382;-72
2021/12/29 12:24:20;;;;;;;271.67;186.38;;;29.40;99.90;;;;;;5034652;28;20087;-71
2021/12/29 12:27:02;;;;;;;183.20;114.85;;;29.30;99.90;;;;;;5032191;28;20037;-71
2021/12/29 12:29:35;;;;;;;91.43;55.47;;;29.30;99.90;;;;;;5032924;28;20041;-71
2021/12/29 12:32:17;;;;;;;83.55;51.15;;;29.30;99.90;;;;;;5032451;28;20029;-70
2021/12/29 12:34:57;;;;;;;110.15;73.15;;;29.30;99.90;;;;;;5032306;28;20064;-70
2021/12/29 12:37:34;;;;;;;94.85;58.60;;;29.30;99.90;;;;;;5033029;28;20400;-71
2021/12/29 12:40:10;;;;;;;82.60;49.97;;;29.30;99.90;;;;;;5033941;28;20022;-70